sensor_id;sensor_type;location;lat;lon;timestamp;pressure;altitude;pressure_sealevel;temperature;humidity
47706;BME280;33471;52.104;1.318;2023-02-11T00:01:21;103098.96;;;6.15;59.19
47706;BME280;33471;52.104;1.318;2023-02-11T00:03:51;103096.04;;;7.24;56.85
47706;BME280;33471;52.104;1.318;2023-02-11T00:06:19;103101.48;;;5.50;61.29
47706;BME280;33471;52.104;1.318;2023-02-11T00:08:47;103102.94;;;6.88;58.95
47706;BME280;33471;52.104;1.318;2023-02-11T00:11:15;103100.19;;;6.38;58.14
47706;BME280;33471;52.104;1.318;2023-02-11T00:13:43;103098.09;;;6.70;58.81
47706;BME280;33471;52.104;1.318;2023-02-11T00:16:14;103101.01;;;6.64;58.34
47706;BME280;33471;52.104;1.318;2023-02-11T00:18:41;103101.09;;;6.31;60.82
47706;BME280;33471;52.104;1.318;2023-02-11T00:21:10;103099.43;;;6.28;59.69
47706;BME280;33471;52.104;1.318;2023-02-11T00:23:38;103102.21;;;6.51;60.43
47706;BME280;33471;52.104;1.318;2023-02-11T00:26:11;103102.44;;;7.00;58.41
47706;BME280;33471;52.104;1.318;2023-02-11T00:28:39;103101.97;;;6.19;60.94
47706;BME280;33471;52.104;1.318;2023-02-11T00:31:06;103097.84;;;6.20;60.37
47706;BME280;33471;52.104;1.318;2023-02-11T00:33:34;103090.78;;;6.02;60.15
47706;BME280;33471;52.104;1.318;2023-02-11T00:36:03;103095.14;;;6.24;59.51
47706;BME280;33471;52.104;1.318;2023-02-11T00:38:31;103095.84;;;6.38;59.19
47706;BME280;33471;52.104;1.318;2023-02-11T00:40:58;103095.15;;;7.40;57.39
47706;BME280;33471;52.104;1.318;2023-02-11T00:43:26;103100.14;;;6.65;58.94
47706;BME280;33471;52.104;1.318;2023-02-11T00:45:54;103095.94;;;7.13;58.03
47706;BME280;33471;52.104;1.318;2023-02-11T00:48:21;103097.10;;;7.30;58.64
47706;BME280;33471;52.104;1.318;2023-02-11T00:50:48;103095.41;;;7.54;57.18
47706;BME280;33471;52.104;1.318;2023-02-11T00:53:15;103095.75;;;7.24;57.03
47706;BME280;33471;52.104;1.318;2023-02-11T00:55:42;103090.28;;;7.53;56.61
47706;BME280;33471;52.104;1.318;2023-02-11T00:58:09;103091.11;;;7.65;56.24
47706;BME280;33471;52.104;1.318;2023-02-11T01:00:36;103086.60;;;8.30;54.77
47706;BME280;33471;52.104;1.318;2023-02-11T01:03:04;103091.18;;;8.17;54.95
47706;BME280;33471;52.104;1.318;2023-02-11T01:05:32;103090.17;;;7.99;55.02
47706;BME280;33471;52.104;1.318;2023-02-11T01:07:59;103090.95;;;8.47;53.87
47706;BME280;33471;52.104;1.318;2023-02-11T01:10:27;103090.71;;;8.23;53.57
47706;BME280;33471;52.104;1.318;2023-02-11T01:12:54;103093.64;;;8.65;53.76
47706;BME280;33471;52.104;1.318;2023-02-11T01:15:21;103093.90;;;9.25;52.37
47706;BME280;33471;52.104;1.318;2023-02-11T01:17:48;103096.42;;;8.24;53.65
47706;BME280;33471;52.104;1.318;2023-02-11T01:20:18;103101.38;;;7.85;55.47
47706;BME280;33471;52.104;1.318;2023-02-11T01:22:46;103105.16;;;8.88;52.44
47706;BME280;33471;52.104;1.318;2023-02-11T01:25:13;103109.07;;;8.99;52.56
47706;BME280;33471;52.104;1.318;2023-02-11T01:27:41;103107.26;;;9.19;50.81
47706;BME280;33471;52.104;1.318;2023-02-11T01:30:11;103109.04;;;9.08;51.40
47706;BME280;33471;52.104;1.318;2023-02-11T01:32:39;103102.67;;;8.89;51.17
47706;BME280;33471;52.104;1.318;2023-02-11T01:35:07;103101.94;;;7.50;55.21
47706;BME280;33471;52.104;1.318;2023-02-11T01:37:35;103094.16;;;8.02;53.56
47706;BME280;33471;52.104;1.318;2023-02-11T01:40:05;103090.70;;;7.74;53.91
47706;BME280;33471;52.104;1.318;2023-02-11T01:42:34;103092.21;;;8.11;52.84
47706;BME280;33471;52.104;1.318;2023-02-11T01:45:40;103091.40;;;8.60;52.26
47706;BME280;33471;52.104;1.318;2023-02-11T01:48:10;103089.88;;;8.79;52.09
47706;BME280;33471;52.104;1.318;2023-02-11T01:50:39;103089.00;;;8.89;51.79
47706;BME280;33471;52.104;1.318;2023-02-11T01:53:09;103093.83;;;7.72;54.13
47706;BME280;33471;52.104;1.318;2023-02-11T01:55:37;103091.23;;;7.34;54.75
47706;BME280;33471;52.104;1.318;2023-02-11T01:58:04;103091.54;;;7.83;53.85
47706;BME280;33471;52.104;1.318;2023-02-11T02:00:34;103089.62;;;6.99;56.70
47706;BME280;33471;52.104;1.318;2023-02-11T02:03:05;103088.27;;;7.18;55.58
47706;BME280;33471;52.104;1.318;2023-02-11T02:05:37;103087.02;;;7.75;54.67
47706;BME280;33471;52.104;1.318;2023-02-11T02:08:15;103088.76;;;7.92;53.99
47706;BME280;33471;52.104;1.318;2023-02-11T02:10:45;103092.47;;;8.31;53.61
47706;BME280;33471;52.104;1.318;2023-02-11T02:13:14;103098.72;;;8.78;52.27
47706;BME280;33471;52.104;1.318;2023-02-11T02:15:48;103095.91;;;8.86;52.34
47706;BME280;33471;52.104;1.318;2023-02-11T02:18:26;103094.10;;;8.56;51.95
47706;BME280;33471;52.104;1.318;2023-02-11T02:21:51;103088.88;;;9.83;50.55
47706;BME280;33471;52.104;1.318;2023-02-11T02:24:37;103090.87;;;7.98;53.64
47706;BME280;33471;52.104;1.318;2023-02-11T02:27:23;103089.49;;;7.55;54.68
47706;BME280;33471;52.104;1.318;2023-02-11T02:30:56;103090.15;;;9.54;52.21
47706;BME280;33471;52.104;1.318;2023-02-11T02:33:35;103086.56;;;9.07;51.53
47706;BME280;33471;52.104;1.318;2023-02-11T02:36:11;103082.20;;;9.35;51.25
47706;BME280;33471;52.104;1.318;2023-02-11T02:38:45;103073.84;;;9.48;50.62
47706;BME280;33471;52.104;1.318;2023-02-11T02:41:15;103075.09;;;8.46;52.54
47706;BME280;33471;52.104;1.318;2023-02-11T02:43:48;103077.17;;;8.59;53.04
47706;BME280;33471;52.104;1.318;2023-02-11T02:46:18;103076.74;;;8.87;52.16
47706;BME280;33471;52.104;1.318;2023-02-11T02:48:47;103079.76;;;7.85;54.39
47706;BME280;33471;52.104;1.318;2023-02-11T02:51:28;103076.14;;;8.31;52.96
47706;BME280;33471;52.104;1.318;2023-02-11T02:54:15;103073.05;;;9.03;51.28
47706;BME280;33471;52.104;1.318;2023-02-11T02:56:52;103072.23;;;8.55;53.23
47706;BME280;33471;52.104;1.318;2023-02-11T02:59:30;103072.08;;;8.55;53.07
47706;BME280;33471;52.104;1.318;2023-02-11T03:02:08;103068.58;;;9.42;51.00
47706;BME280;33471;52.104;1.318;2023-02-11T03:04:45;103072.91;;;8.11;53.23
47706;BME280;33471;52.104;1.318;2023-02-11T03:07:19;103066.79;;;8.92;51.63
47706;BME280;33471;52.104;1.318;2023-02-11T03:09:53;103074.27;;;7.86;54.08
47706;BME280;33471;52.104;1.318;2023-02-11T03:12:23;103066.68;;;9.39;50.93
47706;BME280;33471;52.104;1.318;2023-02-11T03:14:52;103067.91;;;9.11;51.17
47706;BME280;33471;52.104;1.318;2023-02-11T03:17:20;103073.69;;;8.91;51.66
47706;BME280;33471;52.104;1.318;2023-02-11T03:19:50;103073.94;;;9.10;51.19
47706;BME280;33471;52.104;1.318;2023-02-11T03:22:21;103074.06;;;8.13;53.01
47706;BME280;33471;52.104;1.318;2023-02-11T03:24:49;103064.26;;;9.48;50.84
47706;BME280;33471;52.104;1.318;2023-02-11T03:27:20;103058.97;;;9.68;49.95
47706;BME280;33471;52.104;1.318;2023-02-11T03:29:54;103063.67;;;9.60;51.18
47706;BME280;33471;52.104;1.318;2023-02-11T03:32:26;103065.54;;;9.41;51.38
47706;BME280;33471;52.104;1.318;2023-02-11T03:34:57;103071.65;;;9.46;50.92
47706;BME280;33471;52.104;1.318;2023-02-11T03:37:29;103066.80;;;9.60;50.35
47706;BME280;33471;52.104;1.318;2023-02-11T03:40:01;103065.37;;;9.59;50.39
47706;BME280;33471;52.104;1.318;2023-02-11T03:42:33;103059.69;;;9.56;49.94
47706;BME280;33471;52.104;1.318;2023-02-11T03:45:05;103064.17;;;7.84;52.44
47706;BME280;33471;52.104;1.318;2023-02-11T03:47:36;103061.83;;;8.71;51.18
47706;BME280;33471;52.104;1.318;2023-02-11T03:50:07;103065.18;;;9.08;51.04
47706;BME280;33471;52.104;1.318;2023-02-11T03:52:37;103071.30;;;8.47;51.64
47706;BME280;33471;52.104;1.318;2023-02-11T03:55:10;103072.68;;;8.58;52.81
47706;BME280;33471;52.104;1.318;2023-02-11T03:57:38;103070.72;;;8.88;51.77
47706;BME280;33471;52.104;1.318;2023-02-11T04:00:08;103065.93;;;8.74;51.44
47706;BME280;33471;52.104;1.318;2023-02-11T04:02:37;103062.99;;;8.67;51.76
47706;BME280;33471;52.104;1.318;2023-02-11T04:05:07;103061.49;;;8.31;52.67
47706;BME280;33471;52.104;1.318;2023-02-11T04:07:34;103057.53;;;8.59;52.17
47706;BME280;33471;52.104;1.318;2023-02-11T04:10:02;103065.28;;;8.53;52.61
47706;BME280;33471;52.104;1.318;2023-02-11T04:12:29;103071.71;;;9.10;52.08
47706;BME280;33471;52.104;1.318;2023-02-11T04:14:56;103071.74;;;9.54;51.01
47706;BME280;33471;52.104;1.318;2023-02-11T04:17:24;103073.24;;;9.49;50.79
47706;BME280;33471;52.104;1.318;2023-02-11T04:19:51;103074.12;;;9.13;51.23
47706;BME280;33471;52.104;1.318;2023-02-11T04:22:18;103067.45;;;9.67;50.34
47706;BME280;33471;52.104;1.318;2023-02-11T04:24:46;103071.70;;;9.78;50.55
47706;BME280;33471;52.104;1.318;2023-02-11T04:27:13;103068.68;;;9.65;50.42
47706;BME280;33471;52.104;1.318;2023-02-11T04:29:40;103071.67;;;9.05;51.49
47706;BME280;33471;52.104;1.318;2023-02-11T04:32:09;103077.66;;;9.61;50.53
47706;BME280;33471;52.104;1.318;2023-02-11T04:34:37;103079.14;;;9.48;50.72
47706;BME280;33471;52.104;1.318;2023-02-11T04:37:04;103077.30;;;9.55;51.03
47706;BME280;33471;52.104;1.318;2023-02-11T04:39:31;103081.67;;;9.43;50.70
47706;BME280;33471;52.104;1.318;2023-02-11T04:41:59;103079.25;;;9.29;51.28
47706;BME280;33471;52.104;1.318;2023-02-11T04:44:26;103080.08;;;10.03;49.66
47706;BME280;33471;52.104;1.318;2023-02-11T04:46:53;103084.96;;;8.94;51.15
47706;BME280;33471;52.104;1.318;2023-02-11T04:49:21;103082.44;;;9.69;49.89
47706;BME280;33471;52.104;1.318;2023-02-11T04:51:48;103084.05;;;9.37;50.75
47706;BME280;33471;52.104;1.318;2023-02-11T04:54:16;103081.34;;;9.60;49.94
47706;BME280;33471;52.104;1.318;2023-02-11T04:56:43;103083.52;;;9.79;49.29
47706;BME280;33471;52.104;1.318;2023-02-11T04:59:11;103078.89;;;9.93;49.24
47706;BME280;33471;52.104;1.318;2023-02-11T05:01:39;103081.87;;;10.52;47.66
47706;BME280;33471;52.104;1.318;2023-02-11T05:04:06;103087.23;;;9.97;49.21
47706;BME280;33471;52.104;1.318;2023-02-11T05:06:33;103087.83;;;10.11;48.52
47706;BME280;33471;52.104;1.318;2023-02-11T05:09:00;103088.30;;;10.01;49.10
47706;BME280;33471;52.104;1.318;2023-02-11T05:11:28;103086.43;;;8.78;52.18
47706;BME280;33471;52.104;1.318;2023-02-11T05:13:55;103084.69;;;8.19;53.05
47706;BME280;33471;52.104;1.318;2023-02-11T05:16:22;103079.75;;;8.09;54.67
47706;BME280;33471;52.104;1.318;2023-02-11T05:18:49;103077.34;;;7.98;54.80
47706;BME280;33471;52.104;1.318;2023-02-11T05:21:18;103076.48;;;6.13;58.96
47706;BME280;33471;52.104;1.318;2023-02-11T05:23:45;103075.62;;;6.28;59.87
47706;BME280;33471;52.104;1.318;2023-02-11T05:26:14;103079.49;;;6.73;58.94
47706;BME280;33471;52.104;1.318;2023-02-11T05:28:42;103087.08;;;7.56;55.89
47706;BME280;33471;52.104;1.318;2023-02-11T05:31:10;103089.50;;;7.81;55.87
47706;BME280;33471;52.104;1.318;2023-02-11T05:33:38;103092.80;;;8.19;54.13
47706;BME280;33471;52.104;1.318;2023-02-11T05:36:08;103089.66;;;8.30;53.82
47706;BME280;33471;52.104;1.318;2023-02-11T05:38:36;103088.10;;;8.39;54.32
47706;BME280;33471;52.104;1.318;2023-02-11T05:41:04;103084.79;;;8.33;55.39
47706;BME280;33471;52.104;1.318;2023-02-11T05:43:32;103081.24;;;8.49;54.00
47706;BME280;33471;52.104;1.318;2023-02-11T05:46:00;103084.20;;;8.50;54.61
47706;BME280;33471;52.104;1.318;2023-02-11T05:48:27;103089.67;;;8.11;54.59
47706;BME280;33471;52.104;1.318;2023-02-11T05:50:54;103095.26;;;8.60;53.07
47706;BME280;33471;52.104;1.318;2023-02-11T05:53:21;103097.09;;;8.86;53.84
47706;BME280;33471;52.104;1.318;2023-02-11T05:55:49;103098.71;;;8.23;54.47
47706;BME280;33471;52.104;1.318;2023-02-11T05:58:17;103087.67;;;8.89;53.54
47706;BME280;33471;52.104;1.318;2023-02-11T06:00:43;103092.04;;;8.18;54.48
47706;BME280;33471;52.104;1.318;2023-02-11T06:03:11;103090.49;;;8.19;55.02
47706;BME280;33471;52.104;1.318;2023-02-11T06:05:38;103090.17;;;8.77;53.74
47706;BME280;33471;52.104;1.318;2023-02-11T06:08:06;103091.27;;;8.59;53.32
47706;BME280;33471;52.104;1.318;2023-02-11T06:10:33;103096.49;;;9.08;52.18
47706;BME280;33471;52.104;1.318;2023-02-11T06:13:01;103099.64;;;8.72;53.07
47706;BME280;33471;52.104;1.318;2023-02-11T06:15:28;103103.27;;;8.56;53.65
47706;BME280;33471;52.104;1.318;2023-02-11T06:17:56;103110.28;;;9.53;52.18
47706;BME280;33471;52.104;1.318;2023-02-11T06:20:23;103118.92;;;8.35;52.88
47706;BME280;33471;52.104;1.318;2023-02-11T06:22:50;103112.15;;;9.35;51.87
47706;BME280;33471;52.104;1.318;2023-02-11T06:25:18;103114.10;;;8.82;53.14
47706;BME280;33471;52.104;1.318;2023-02-11T06:27:45;103103.66;;;8.87;51.23
47706;BME280;33471;52.104;1.318;2023-02-11T06:30:13;103108.69;;;9.19;52.49
47706;BME280;33471;52.104;1.318;2023-02-11T06:32:41;103108.09;;;9.21;52.51
47706;BME280;33471;52.104;1.318;2023-02-11T06:35:08;103108.88;;;9.11;52.19
47706;BME280;33471;52.104;1.318;2023-02-11T06:37:35;103109.00;;;9.08;51.84
47706;BME280;33471;52.104;1.318;2023-02-11T06:40:02;103109.20;;;9.48;51.98
47706;BME280;33471;52.104;1.318;2023-02-11T06:42:30;103114.81;;;10.23;50.45
47706;BME280;33471;52.104;1.318;2023-02-11T06:44:57;103118.64;;;9.88;50.98
47706;BME280;33471;52.104;1.318;2023-02-11T06:47:24;103119.35;;;9.29;51.87
47706;BME280;33471;52.104;1.318;2023-02-11T06:49:51;103117.05;;;9.44;52.38
47706;BME280;33471;52.104;1.318;2023-02-11T06:52:18;103115.59;;;10.12;50.10
47706;BME280;33471;52.104;1.318;2023-02-11T06:54:45;103118.14;;;10.02;50.39
47706;BME280;33471;52.104;1.318;2023-02-11T06:57:13;103118.02;;;9.93;50.76
47706;BME280;33471;52.104;1.318;2023-02-11T06:59:40;103121.17;;;10.18;50.36
47706;BME280;33471;52.104;1.318;2023-02-11T07:02:09;103128.64;;;8.82;53.50
47706;BME280;33471;52.104;1.318;2023-02-11T07:04:36;103125.44;;;9.78;50.58
47706;BME280;33471;52.104;1.318;2023-02-11T07:07:04;103124.31;;;9.91;50.44
47706;BME280;33471;52.104;1.318;2023-02-11T07:09:32;103128.03;;;10.26;50.28
47706;BME280;33471;52.104;1.318;2023-02-11T07:11:59;103128.63;;;10.09;50.98
47706;BME280;33471;52.104;1.318;2023-02-11T07:14:26;103129.31;;;9.99;51.23
47706;BME280;33471;52.104;1.318;2023-02-11T07:16:54;103130.03;;;9.88;51.84
47706;BME280;33471;52.104;1.318;2023-02-11T07:19:21;103133.46;;;9.97;50.59
47706;BME280;33471;52.104;1.318;2023-02-11T07:21:48;103139.22;;;9.33;52.85
47706;BME280;33471;52.104;1.318;2023-02-11T07:24:15;103136.68;;;9.15;51.67
47706;BME280;33471;52.104;1.318;2023-02-11T07:26:42;103133.63;;;9.15;52.67
47706;BME280;33471;52.104;1.318;2023-02-11T07:29:09;103134.69;;;9.62;51.81
47706;BME280;33471;52.104;1.318;2023-02-11T07:31:37;103136.03;;;9.49;52.30
47706;BME280;33471;52.104;1.318;2023-02-11T07:34:04;103143.17;;;10.57;50.61
47706;BME280;33471;52.104;1.318;2023-02-11T07:36:31;103154.91;;;9.40;52.75
47706;BME280;33471;52.104;1.318;2023-02-11T07:38:59;103149.95;;;9.74;51.80
47706;BME280;33471;52.104;1.318;2023-02-11T07:41:26;103149.79;;;9.80;51.62
47706;BME280;33471;52.104;1.318;2023-02-11T07:43:54;103148.92;;;10.20;50.49
47706;BME280;33471;52.104;1.318;2023-02-11T07:46:24;103150.95;;;9.57;52.33
47706;BME280;33471;52.104;1.318;2023-02-11T07:48:52;103151.80;;;10.04;51.33
47706;BME280;33471;52.104;1.318;2023-02-11T07:51:22;103151.26;;;10.30;49.69
47706;BME280;33471;52.104;1.318;2023-02-11T07:53:50;103152.92;;;10.39;49.04
47706;BME280;33471;52.104;1.318;2023-02-11T07:56:18;103154.31;;;9.80;51.12
47706;BME280;33471;52.104;1.318;2023-02-11T07:58:45;103154.55;;;10.66;49.51
47706;BME280;33471;52.104;1.318;2023-02-11T08:01:15;103158.51;;;10.21;51.06
47706;BME280;33471;52.104;1.318;2023-02-11T08:03:43;103159.38;;;9.81;51.27
47706;BME280;33471;52.104;1.318;2023-02-11T08:06:13;103163.88;;;9.23;52.94
47706;BME280;33471;52.104;1.318;2023-02-11T08:08:41;103166.96;;;10.26;51.28
47706;BME280;33471;52.104;1.318;2023-02-11T08:11:11;103164.73;;;10.65;49.99
47706;BME280;33471;52.104;1.318;2023-02-11T08:13:39;103166.72;;;9.79;51.91
47706;BME280;33471;52.104;1.318;2023-02-11T08:16:07;103169.20;;;10.10;51.29
47706;BME280;33471;52.104;1.318;2023-02-11T08:18:36;103172.17;;;9.68;52.06
47706;BME280;33471;52.104;1.318;2023-02-11T08:21:04;103175.47;;;10.15;51.53
47706;BME280;33471;52.104;1.318;2023-02-11T08:23:32;103177.87;;;9.73;52.64
47706;BME280;33471;52.104;1.318;2023-02-11T08:26:01;103184.24;;;10.42;51.73
47706;BME280;33471;52.104;1.318;2023-02-11T08:28:28;103183.33;;;10.05;51.98
47706;BME280;33471;52.104;1.318;2023-02-11T08:30:56;103185.39;;;10.33;51.60
47706;BME280;33471;52.104;1.318;2023-02-11T08:33:23;103183.72;;;9.30;52.57
47706;BME280;33471;52.104;1.318;2023-02-11T08:35:50;103189.12;;;10.37;51.26
47706;BME280;33471;52.104;1.318;2023-02-11T08:38:17;103196.03;;;10.66;50.48
47706;BME280;33471;52.104;1.318;2023-02-11T08:40:44;103198.72;;;11.33;49.09
47706;BME280;33471;52.104;1.318;2023-02-11T08:43:11;103195.83;;;10.95;49.88
47706;BME280;33471;52.104;1.318;2023-02-11T08:45:38;103191.49;;;11.78;48.42
47706;BME280;33471;52.104;1.318;2023-02-11T08:48:06;103191.00;;;12.00;47.94
47706;BME280;33471;52.104;1.318;2023-02-11T08:50:33;103197.12;;;11.28;49.04
47706;BME280;33471;52.104;1.318;2023-02-11T08:53:00;103197.87;;;10.35;49.87
47706;BME280;33471;52.104;1.318;2023-02-11T08:55:27;103197.97;;;11.32;49.45
47706;BME280;33471;52.104;1.318;2023-02-11T08:57:55;103199.82;;;11.35;49.18
47706;BME280;33471;52.104;1.318;2023-02-11T09:00:23;103197.29;;;11.91;48.26
47706;BME280;33471;52.104;1.318;2023-02-11T09:02:50;103196.58;;;10.84;50.04
47706;BME280;33471;52.104;1.318;2023-02-11T09:05:18;103201.76;;;11.11;49.32
47706;BME280;33471;52.104;1.318;2023-02-11T09:07:45;103197.92;;;11.58;48.95
47706;BME280;33471;52.104;1.318;2023-02-11T09:10:13;103196.20;;;10.97;49.60
47706;BME280;33471;52.104;1.318;2023-02-11T09:12:40;103195.51;;;11.07;49.64
47706;BME280;33471;52.104;1.318;2023-02-11T09:15:08;103196.34;;;10.30;50.40
47706;BME280;33471;52.104;1.318;2023-02-11T09:17:35;103202.34;;;10.14;52.55
47706;BME280;33471;52.104;1.318;2023-02-11T09:20:04;103202.78;;;10.03;51.76
47706;BME280;33471;52.104;1.318;2023-02-11T09:22:32;103199.52;;;10.09;52.34
47706;BME280;33471;52.104;1.318;2023-02-11T09:24:59;103194.09;;;11.38;49.32
47706;BME280;33471;52.104;1.318;2023-02-11T09:27:26;103202.39;;;10.78;50.87
47706;BME280;33471;52.104;1.318;2023-02-11T09:29:53;103209.10;;;11.02;50.30
47706;BME280;33471;52.104;1.318;2023-02-11T09:32:19;103209.06;;;11.05;49.27
47706;BME280;33471;52.104;1.318;2023-02-11T09:34:46;103208.44;;;11.55;48.74
47706;BME280;33471;52.104;1.318;2023-02-11T09:37:14;103216.43;;;11.30;48.38
47706;BME280;33471;52.104;1.318;2023-02-11T09:39:41;103213.92;;;11.57;49.15
47706;BME280;33471;52.104;1.318;2023-02-11T09:42:33;103208.28;;;12.00;48.27
47706;BME280;33471;52.104;1.318;2023-02-11T09:45:04;103215.42;;;11.02;49.73
47706;BME280;33471;52.104;1.318;2023-02-11T09:47:45;103219.90;;;11.77;48.99
47706;BME280;33471;52.104;1.318;2023-02-11T09:50:21;103228.19;;;12.05;48.11
47706;BME280;33471;52.104;1.318;2023-02-11T09:52:54;103232.43;;;11.96;48.23
47706;BME280;33471;52.104;1.318;2023-02-11T09:55:25;103221.94;;;12.36;47.69
47706;BME280;33471;52.104;1.318;2023-02-11T09:57:53;103227.05;;;11.02;50.51
47706;BME280;33471;52.104;1.318;2023-02-11T10:00:25;103233.44;;;11.28;49.80
47706;BME280;33471;52.104;1.318;2023-02-11T10:03:05;103238.79;;;11.73;48.33
47706;BME280;33471;52.104;1.318;2023-02-11T10:05:47;103242.86;;;11.46;48.50
47706;BME280;33471;52.104;1.318;2023-02-11T10:08:26;103239.60;;;11.93;47.25
47706;BME280;33471;52.104;1.318;2023-02-11T10:11:00;103235.42;;;11.02;49.73
47706;BME280;33471;52.104;1.318;2023-02-11T10:13:42;103232.34;;;11.42;49.12
47706;BME280;33471;52.104;1.318;2023-02-11T10:16:25;103237.72;;;11.44;48.66
47706;BME280;33471;52.104;1.318;2023-02-11T10:19:14;103241.40;;;12.13;47.73
47706;BME280;33471;52.104;1.318;2023-02-11T10:21:52;103245.60;;;12.95;46.53
47706;BME280;33471;52.104;1.318;2023-02-11T10:24:24;103245.17;;;12.40;47.43
47706;BME280;33471;52.104;1.318;2023-02-11T10:26:51;103247.77;;;11.45;49.04
47706;BME280;33471;52.104;1.318;2023-02-11T10:29:30;103242.39;;;11.76;48.23
47706;BME280;33471;52.104;1.318;2023-02-11T10:32:02;103242.08;;;12.26;47.02
47706;BME280;33471;52.104;1.318;2023-02-11T10:34:31;103250.96;;;13.01;45.98
47706;BME280;33471;52.104;1.318;2023-02-11T10:36:59;103253.73;;;13.91;44.48
47706;BME280;33471;52.104;1.318;2023-02-11T10:39:27;103258.23;;;12.75;45.60
47706;BME280;33471;52.104;1.318;2023-02-11T10:41:58;103256.40;;;14.38;43.71
47706;BME280;33471;52.104;1.318;2023-02-11T10:44:30;103259.97;;;14.50;43.17
47706;BME280;33471;52.104;1.318;2023-02-11T10:47:00;103267.47;;;14.05;43.14
47706;BME280;33471;52.104;1.318;2023-02-11T10:49:36;103268.40;;;13.86;44.79
47706;BME280;33471;52.104;1.318;2023-02-11T10:52:19;103267.92;;;13.56;44.82
47706;BME280;33471;52.104;1.318;2023-02-11T10:55:05;103268.35;;;13.32;45.18
47706;BME280;33471;52.104;1.318;2023-02-11T10:57:42;103259.49;;;11.84;46.56
47706;BME280;33471;52.104;1.318;2023-02-11T11:00:33;103262.32;;;13.33;43.95
47706;BME280;33471;52.104;1.318;2023-02-11T11:03:03;103262.03;;;14.01;43.37
47706;BME280;33471;52.104;1.318;2023-02-11T11:05:33;103265.34;;;14.30;43.30
47706;BME280;33471;52.104;1.318;2023-02-11T11:08:03;103267.23;;;13.71;44.53
47706;BME280;33471;52.104;1.318;2023-02-11T11:10:39;103262.54;;;12.78;46.33
47706;BME280;33471;52.104;1.318;2023-02-11T11:13:23;103266.58;;;12.69;45.56
47706;BME280;33471;52.104;1.318;2023-02-11T11:16:08;103261.53;;;14.08;43.96
47706;BME280;33471;52.104;1.318;2023-02-11T11:18:36;103262.07;;;13.54;43.84
47706;BME280;33471;52.104;1.318;2023-02-11T11:21:05;103261.39;;;14.02;43.50
47706;BME280;33471;52.104;1.318;2023-02-11T11:23:34;103258.49;;;14.04;42.32
47706;BME280;33471;52.104;1.318;2023-02-11T11:26:05;103261.79;;;14.14;42.50
47706;BME280;33471;52.104;1.318;2023-02-11T11:28:37;103255.91;;;14.21;42.41
47706;BME280;33471;52.104;1.318;2023-02-11T11:31:12;103265.11;;;11.38;47.37
47706;BME280;33471;52.104;1.318;2023-02-11T11:33:42;103263.16;;;11.77;46.23
47706;BME280;33471;52.104;1.318;2023-02-11T11:36:12;103259.80;;;12.30;46.08
47706;BME280;33471;52.104;1.318;2023-02-11T11:38:44;103260.06;;;13.64;43.20
47706;BME280;33471;52.104;1.318;2023-02-11T11:41:30;103262.59;;;14.29;42.60
47706;BME280;33471;52.104;1.318;2023-02-11T11:44:02;103262.42;;;14.21;42.11
47706;BME280;33471;52.104;1.318;2023-02-11T11:46:33;103260.27;;;14.11;41.94
47706;BME280;33471;52.104;1.318;2023-02-11T11:49:16;103261.29;;;14.04;42.47
47706;BME280;33471;52.104;1.318;2023-02-11T11:51:53;103269.53;;;13.82;41.53
47706;BME280;33471;52.104;1.318;2023-02-11T11:54:23;103271.55;;;13.02;42.78
47706;BME280;33471;52.104;1.318;2023-02-11T11:56:59;103268.99;;;11.87;43.64
47706;BME280;33471;52.104;1.318;2023-02-11T11:59:28;103265.89;;;12.48;42.89
47706;BME280;33471;52.104;1.318;2023-02-11T12:02:15;103268.11;;;12.00;44.08
47706;BME280;33471;52.104;1.318;2023-02-11T12:04:59;103266.95;;;11.67;44.51
47706;BME280;33471;52.104;1.318;2023-02-11T12:07:38;103263.04;;;11.29;45.04
47706;BME280;33471;52.104;1.318;2023-02-11T12:10:37;103257.31;;;10.83;46.33
47706;BME280;33471;52.104;1.318;2023-02-11T12:13:17;103260.42;;;10.75;46.97
47706;BME280;33471;52.104;1.318;2023-02-11T12:15:57;103263.47;;;12.01;43.80
47706;BME280;33471;52.104;1.318;2023-02-11T12:18:40;103266.35;;;12.34;43.10
47706;BME280;33471;52.104;1.318;2023-02-11T12:21:22;103270.99;;;11.32;44.67
47706;BME280;33471;52.104;1.318;2023-02-11T12:24:05;103265.19;;;11.03;45.75
47706;BME280;33471;52.104;1.318;2023-02-11T12:26:43;103265.46;;;12.18;44.08
47706;BME280;33471;52.104;1.318;2023-02-11T12:29:21;103268.54;;;11.07;44.90
47706;BME280;33471;52.104;1.318;2023-02-11T12:32:02;103267.68;;;11.17;44.81
47706;BME280;33471;52.104;1.318;2023-02-11T12:34:41;103263.15;;;10.30;47.00
47706;BME280;33471;52.104;1.318;2023-02-11T12:37:24;103265.61;;;10.58;46.03
47706;BME280;33471;52.104;1.318;2023-02-11T12:40:02;103266.86;;;10.13;47.31
47706;BME280;33471;52.104;1.318;2023-02-11T12:42:45;103261.02;;;10.45;46.32
47706;BME280;33471;52.104;1.318;2023-02-11T12:45:24;103260.67;;;10.90;45.83
47706;BME280;33471;52.104;1.318;2023-02-11T12:48:06;103266.88;;;10.80;45.08
47706;BME280;33471;52.104;1.318;2023-02-11T12:50:43;103267.76;;;11.51;43.70
47706;BME280;33471;52.104;1.318;2023-02-11T12:53:28;103271.49;;;11.04;44.18
47706;BME280;33471;52.104;1.318;2023-02-11T12:56:04;103269.80;;;10.53;45.41
47706;BME280;33471;52.104;1.318;2023-02-11T12:58:37;103268.67;;;9.85;45.92
47706;BME280;33471;52.104;1.318;2023-02-11T13:01:09;103267.29;;;10.92;43.96
47706;BME280;33471;52.104;1.318;2023-02-11T13:03:41;103269.08;;;11.56;43.67
47706;BME280;33471;52.104;1.318;2023-02-11T13:06:11;103269.65;;;10.60;45.07
47706;BME280;33471;52.104;1.318;2023-02-11T13:08:43;103269.66;;;11.17;44.20
47706;BME280;33471;52.104;1.318;2023-02-11T13:11:16;103263.78;;;11.18;42.75
47706;BME280;33471;52.104;1.318;2023-02-11T13:13:50;103262.97;;;11.15;43.17
47706;BME280;33471;52.104;1.318;2023-02-11T13:16:30;103267.97;;;9.81;45.56